Latest Weather Observations for Wellcamp Airport

IDQ60901

Issued at 7:31 pm EST Sunday 29 March 2020 (issued every 10 minutes, with the page automatically refreshed every 10 minutes)

About weather observations | Map of Brisbane area stations | Latest observations for Brisbane area | Other Formats
Station Details ID: 541150 Name: WELLCAMP AIRPORT Lat: -27.55 Lon: 151.78 Height: 436.98 m
Data from the previous 72 hours. | See also: Recent months for locations in Queensland
Date/Time
EST
Temp
°C
App
Temp
°C
Dew
Point
°C
Rel
Hum
%
Delta-T
°C
Wind Press
QNH
hPa
Press
MSL
hPa
Rain since
9am
mm
Dir  Spd
km/h
Gust
km/h
Spd
kts
Gust
kts
29/07:30pm 22.9 21.3 16.0 65 4.2 E 19 24 10 13 1018.1 1015.9 0.0
29/07:00pm 23.4 22.3 14.4 57 5.4 E 13 19 7 10 1017.8 1015.6 0.0
29/06:30pm 24.3 22.8 14.1 53 6.1 E 15 19 8 10 1017.3 1015.2 0.0
29/06:00pm 24.9 23.3 13.8 50 6.6 E 15 22 8 12 1017.1 1015.0 0.0
29/05:30pm 25.8 23.4 12.6 44 7.8 E 17 24 9 13 1016.8 1014.7 0.0
29/05:00pm 26.5 24.6 12.9 43 8.1 ESE 15 22 8 12 1016.4 1014.3 0.0
29/04:30pm 27.3 26.7 13.6 43 8.3 E 9 19 5 10 1016.3 1014.1 0.0
29/04:00pm 27.4 26.4 13.4 42 8.4 E 11 19 6 10 1016.3 1014.1 0.0
29/03:30pm 27.8 26.8 13.3 40 8.7 ESE 11 17 6 9 1016.5 1014.4 0.0
29/03:00pm 27.6 26.8 13.9 43 8.3 ESE 11 20 6 11 1016.7 1014.6 0.0
29/02:30pm 27.4 27.4 14.1 44 8.1 ESE 7 22 4 12 1016.8 1014.7 0.0
29/02:00pm 27.0 26.6 14.1 45 7.8 ENE 9 17 5 9 1016.9 1014.8 0.0
29/01:30pm 26.5 26.6 13.9 45 7.6 ENE 6 13 3 7 1017.4 1015.3 0.0
29/01:00pm 24.8 24.7 14.9 54 6.0 E 9 17 5 9 1018.1 1015.9 0.0
29/12:30pm 24.6 24.7 15.5 57 5.6 ENE 9 19 5 10 1018.6 1016.5 0.0
29/12:00pm 25.9 25.9 16.2 55 6.0 E 11 19 6 10 1019.1 1017.0 0.0
29/11:30am 23.6 22.3 15.9 62 4.7 ENE 17 26 9 14 1019.5 1017.4 0.0
29/11:00am 24.3 22.8 16.3 61 5.0 E 19 26 10 14 1020.0 1017.8 0.0
29/10:30am 23.3 22.5 16.1 64 4.4 ENE 15 24 8 13 1020.2 1018.0 0.0
29/10:00am 21.7 21.2 16.0 70 3.5 E 13 20 7 11 1020.4 1018.2 0.0
29/09:30am 21.3 20.5 16.0 72 3.2 E 15 22 8 12 1020.5 1018.4 0.0
29/09:07am 21.0 19.2 16.0 73 3.1 ENE 20 26 11 14 1020.6 1018.5 0.0
29/09:00am 20.9 19.0 15.7 72 3.2 E 20 28 11 15 1020.6 1018.5 0.0
29/08:30am 20.6 18.9 15.8 74 2.9 ESE 19 24 10 13 1020.3 1018.1 0.0
29/08:00am 19.8 19.4 16.3 80 2.1 E 13 20 7 11 1020.2 1018.0 0.0
29/07:30am 19.5 18.8 16.3 82 2.0 E 15 20 8 11 1020.0 1017.8 0.0
29/07:00am 19.2 18.4 16.1 82 1.9 ESE 15 22 8 12 1019.6 1017.5 0.0
29/06:30am 18.6 19.5 16.0 85 1.6 ESE 6 7 3 4 1019.2 1017.1 0.0
29/06:00am 18.3 18.1 15.6 84 1.6 ESE 11 15 6 8 1018.7 1016.6 0.0
29/05:30am 18.7 18.2 15.9 84 1.7 ESE 13 17 7 9 1018.4 1016.2 0.0
29/05:00am 18.7 18.3 16.1 85 1.6 E 13 28 7 15 1018.0 1015.8 0.0
29/04:30am 18.8 19.2 16.4 86 1.5 E 9 15 5 8 1018.0 1015.8 0.0
29/04:27am 18.7 19.1 16.3 86 1.5 E 9 13 5 7 1017.9 1015.7 0.0
29/04:00am 18.8 18.4 16.2 85 1.6 E 13 19 7 10 1017.9 1015.7 0.0
29/03:30am 19.3 18.9 16.2 82 1.9 E 13 19 7 10 1018.1 1015.9 0.0
29/03:21am 19.3 18.8 16.0 81 2.0 E 13 17 7 9 1018.1 1015.9 0.0
29/03:00am 19.4 19.4 16.2 82 1.9 E 11 17 6 9 1018.2 1016.0 0.0
29/02:30am 19.4 19.4 16.2 82 2.0 ESE 11 17 6 9 1018.3 1016.1 0.0
29/02:00am 19.3 19.8 16.5 84 1.7 ENE 9 15 5 8 1018.5 1016.4 0.0
29/01:30am 19.3 20.3 16.3 83 1.8 NNE 6 7 3 4 1019.0 1016.9 0.0
29/01:00am 19.5 20.3 16.3 82 2.0 ESE 7 15 4 8 1019.1 1017.0 0.0
29/12:30am 19.4 20.4 16.4 83 1.8 ESE 6 11 3 6 1019.2 1017.1 0.0
29/12:00am 19.4 19.4 16.2 82 1.9 E 11 19 6 10 1019.3 1017.2 0.0
 
Date/Time
EST
Temp
°C
App
Temp
°C
Dew
Point
°C
Rel
Hum
%
Delta-T
°C
Wind Press
QNH
hPa
Press
MSL
hPa
Rain since
9am
mm
Dir  Spd
km/h
Gust
km/h
Spd
kts
Gust
kts
28/11:30pm 19.5 20.5 16.3 82 2.0 ESE 6 11 3 6 1019.6 1017.5 0.0
28/11:06pm 19.3 20.1 16.3 83 1.8 SE 7 15 4 8 1020.0 1017.8 0.0
28/11:00pm 19.3 19.8 16.5 84 1.7 SE 9 15 5 8 1019.8 1017.7 0.0
28/10:30pm 19.8 19.5 16.4 81 2.1 E 13 22 7 12 1019.7 1017.6 0.0
28/10:00pm 19.9 18.8 16.3 80 2.2 E 17 26 9 14 1019.5 1017.4 0.0
28/09:30pm 20.0 20.4 16.2 79 2.3 ESE 9 15 5 8 1020.0 1017.8 0.0
28/09:00pm 20.6 21.0 16.4 77 2.6 E 9 15 5 8 1020.1 1017.9 0.0
28/08:30pm 20.8 20.9 16.4 76 2.7 E 11 19 6 10 1019.7 1017.6 0.0
28/08:00pm 21.0 21.3 16.0 73 3.1 E 9 15 5 8 1019.4 1017.3 0.0
28/07:30pm 21.3 21.1 15.8 71 3.4 E 11 17 6 9 1019.5 1017.4 0.0
28/07:00pm 21.8 20.5 15.9 69 3.6 E 17 24 9 13 1019.1 1017.0 0.0
28/06:30pm 22.3 19.9 15.4 65 4.2 ENE 22 30 12 16 1018.7 1016.6 0.0
28/06:00pm 23.4 21.4 15.5 61 4.8 ENE 20 28 11 15 1018.4 1016.2 0.0
28/05:30pm 24.6 21.7 15.2 55 5.8 E 24 35 13 19 1018.0 1015.8 0.0
28/05:00pm 25.1 22.6 13.6 49 6.9 ESE 19 24 10 13 1017.6 1015.4 0.0
28/04:30pm 25.6 22.3 14.1 49 6.9 E 24 32 13 17 1017.3 1015.2 0.0
28/04:00pm 26.5 23.2 13.9 45 7.6 E 24 33 13 18 1017.3 1015.2 0.0
28/03:30pm 27.0 23.7 14.1 45 7.8 E 24 32 13 17 1017.3 1015.2 0.0
28/03:00pm 27.5 24.8 14.5 45 7.9 ENE 22 33 12 18 1017.6 1015.4 0.0
28/02:30pm 27.7 24.8 14.0 43 8.3 E 22 32 12 17 1017.8 1015.6 0.0
28/02:00pm 27.4 25.2 14.8 46 7.7 ENE 20 32 11 17 1017.9 1015.7 0.0
28/01:30pm 27.1 25.0 14.8 47 7.6 E 19 32 10 17 1018.4 1016.2 0.0
28/01:00pm 26.5 24.3 14.3 47 7.4 ENE 19 30 10 16 1018.8 1016.7 0.0
28/12:30pm 26.4 24.0 14.5 48 7.3 ESE 20 30 11 16 1019.2 1017.1 0.0
28/12:00pm 26.1 23.5 14.9 50 6.8 ESE 22 35 12 19 1019.7 1017.6 0.0
28/11:30am 25.4 22.4 14.8 52 6.5 ESE 24 35 13 19 1020.2 1018.0 0.0
28/11:00am 25.0 22.9 14.8 53 6.2 E 19 28 10 15 1020.7 1018.6 0.0
28/10:30am 24.3 21.3 14.7 55 5.8 E 24 37 13 20 1020.9 1018.8 0.0
28/10:00am 23.3 20.1 14.3 57 5.4 ESE 24 32 13 17 1021.2 1019.1 0.0
28/09:30am 22.9 20.5 13.9 57 5.4 SE 19 30 10 16 1021.2 1019.1 0.0
28/09:00am 22.0 19.0 13.6 59 4.9 SE 22 33 12 18 1021.3 1019.2 0.0
28/08:30am 20.1 18.8 13.6 66 3.8 SSE 13 20 7 11 1021.2 1019.1 0.0
28/08:00am 18.4 17.0 13.3 72 2.9 SSE 13 19 7 10 1021.0 1018.9 0.0
28/07:30am 15.7 14.6 12.1 79 2.0 S 9 13 5 7 1020.9 1018.8 0.0
28/07:00am 14.0 12.7 11.3 84 1.5 S 9 13 5 7 1020.7 1018.6 0.0
28/06:30am 13.3 11.9 10.8 85 1.3 S 9 11 5 6 1020.6 1018.5 0.0
28/06:00am 13.7 - 10.9 83 1.5 - - - - - 1020.5 1018.4 0.0
28/05:30am 13.1 11.6 10.6 85 1.3 SSE 9 13 5 7 1020.4 1018.2 0.0
28/05:00am 13.2 11.7 10.7 85 1.3 SSE 9 9 5 5 1020.1 1017.9 0.0
28/04:30am 13.5 11.7 10.7 83 1.5 SSE 11 13 6 7 1019.8 1017.7 0.0
28/04:00am 13.5 12.4 10.7 83 1.5 SSE 7 11 4 6 1019.8 1017.7 0.0
28/03:30am 13.3 11.8 10.7 84 1.4 SSE 9 9 5 5 1019.8 1017.7 0.0
28/03:00am 13.8 12.4 10.8 82 1.6 S 9 11 5 6 1019.8 1017.7 0.0
28/02:30am 13.6 13.2 11.0 84 1.4 S 4 7 2 4 1020.3 1018.1 0.0
28/02:00am 14.9 14.0 11.5 80 1.9 S 7 9 4 5 1020.3 1018.1 0.0
28/01:30am 15.5 14.7 11.7 78 2.1 SSE 7 11 4 6 1020.5 1018.4 0.0
28/01:00am 16.5 14.6 11.9 74 2.6 ESE 13 19 7 10 1020.5 1018.4 0.0
28/12:30am 16.4 15.3 11.8 74 2.6 ESE 9 13 5 7 1020.4 1018.2 0.0
28/12:00am 17.7 15.2 12.2 70 3.1 ESE 17 22 9 12 1020.6 1018.5 0.0
 
Date/Time
EST
Temp
°C
App
Temp
°C
Dew
Point
°C
Rel
Hum
%
Delta-T
°C
Wind Press
QNH
hPa
Press
MSL
hPa
Rain since
9am
mm
Dir  Spd
km/h
Gust
km/h
Spd
kts
Gust
kts
27/11:30pm 17.8 16.1 12.3 70 3.1 ESE 13 20 7 11 1021.0 1018.9 0.0
27/11:00pm 18.1 16.0 12.3 69 3.3 ESE 15 19 8 10 1021.2 1019.1 0.0
27/10:30pm 18.5 16.4 12.5 68 3.4 ESE 15 20 8 11 1021.2 1019.1 0.0
27/10:00pm 18.8 16.8 12.8 68 3.4 ESE 15 22 8 12 1021.4 1019.3 0.0
27/09:30pm 19.0 16.1 13.0 68 3.5 ESE 20 26 11 14 1021.5 1019.4 0.0
27/09:00pm 19.2 17.1 13.6 70 3.3 ESE 17 22 9 12 1021.6 1019.5 0.0
27/08:30pm 19.3 16.9 13.9 71 3.2 ESE 19 28 10 15 1021.5 1019.4 0.0
27/08:00pm 19.4 17.9 14.2 72 3.1 ESE 15 22 8 12 1021.3 1019.2 0.0
27/07:30pm 19.3 17.0 14.6 74 2.8 ESE 20 28 11 15 1021.0 1018.9 0.0
27/07:00pm 19.7 17.1 14.9 74 2.9 ESE 22 32 12 17 1020.7 1018.6 0.0
27/06:30pm 20.9 16.9 14.1 65 4.0 ESE 28 37 15 20 1020.4 1018.2 0.0
27/06:00pm 21.3 18.5 14.2 64 4.2 ESE 22 32 12 17 1020.3 1018.1 0.0
27/05:30pm 21.8 18.5 13.9 61 4.7 ESE 24 33 13 18 1020.2 1018.0 0.0
27/05:00pm 22.3 18.1 13.6 58 5.1 ESE 28 35 15 19 1020.1 1017.9 0.0
27/04:30pm 22.8 17.9 13.6 56 5.4 ESE 32 39 17 21 1019.8 1017.7 0.0
27/04:00pm 23.7 20.1 14.1 55 5.7 ESE 26 35 14 19 1019.7 1017.6 0.0
27/03:30pm 24.0 19.8 13.5 52 6.2 E 28 37 15 20 1019.7 1017.6 0.0
27/03:00pm 24.8 20.7 13.7 50 6.6 E 28 43 15 23 1019.5 1017.4 0.0
27/02:30pm 24.8 21.4 13.7 50 6.6 E 24 32 13 17 1019.7 1017.6 0.0
27/02:00pm 25.8 21.8 14.0 48 7.1 ESE 28 37 15 20 1019.8 1017.7 0.0
27/01:30pm 26.2 22.3 14.3 48 7.2 E 28 39 15 21 1020.1 1017.9 0.0
27/01:00pm 25.2 21.5 14.0 49 6.7 E 26 41 14 22 1020.5 1018.4 0.0
27/12:30pm 25.0 21.9 14.5 52 6.4 ESE 24 33 13 18 1020.8 1018.7 0.0
27/12:00pm 24.3 21.5 14.4 54 6.0 ESE 22 30 12 16 1021.2 1019.1 0.0
27/11:30am 24.5 22.1 14.3 53 6.2 ESE 20 32 11 17 1021.5 1019.4 0.0
27/11:00am 23.1 20.0 14.4 58 5.2 E 24 37 13 20 1022.0 1019.9 0.0
27/10:30am 23.4 20.1 14.1 56 5.6 ESE 24 32 13 17 1022.1 1020.0 0.0
27/10:00am 22.6 19.3 13.9 58 5.2 ESE 24 33 13 18 1022.4 1020.2 0.0
27/09:30am 22.3 19.9 14.4 61 4.7 E 20 32 11 17 1022.4 1020.2 0.0
27/09:00am 22.3 19.5 14.4 61 4.7 ESE 22 33 12 18 1022.4 1020.2 0.0
27/08:30am 21.8 18.3 14.4 63 4.4 ESE 26 35 14 19 1022.2 1020.1 0.0
27/08:00am 21.2 19.8 14.4 65 4.0 ESE 15 28 8 15 1021.8 1019.7 0.0
27/07:30am 19.6 20.3 14.6 73 3.0 S 4 6 2 3 1021.7 1019.6 0.0
27/07:00am 18.3 18.1 14.6 79 2.2 W 9 11 5 6 1021.5 1019.4 0.0
27/06:30am 17.6 18.2 14.3 81 1.9 SSE 4 9 2 5 1020.7 1018.6 0.0
27/06:00am 17.6 17.3 14.3 81 1.9 SSE 9 11 5 6 1020.7 1018.6 0.0
27/05:30am 17.7 17.5 14.6 82 1.8 SE 9 13 5 7 1020.7 1018.6 0.0
27/05:00am 18.2 17.9 14.5 79 2.2 E 9 15 5 8 1020.4 1018.2 0.0
27/04:30am 18.8 18.5 14.5 76 2.5 E 9 15 5 8 1020.2 1018.0 0.0
27/04:00am 19.2 18.6 14.5 74 2.8 ESE 11 17 6 9 1020.0 1017.8 0.0
27/03:30am 19.2 17.0 14.5 74 2.8 ESE 19 26 10 14 1019.7 1017.6 0.0
27/03:00am 19.3 17.2 14.8 75 2.7 SE 19 26 10 14 1019.4 1017.3 0.0
27/02:30am 19.4 16.9 15.1 76 2.6 SE 22 26 12 14 1019.7 1017.6 0.0
27/02:00am 19.4 18.8 15.7 79 2.2 SE 13 19 7 10 1020.2 1018.0 0.0
27/01:30am 19.6 17.9 15.7 78 2.4 ESE 19 24 10 13 1020.5 1018.4 0.0
27/01:00am 19.8 18.8 15.7 77 2.5 ESE 15 20 8 11 1020.5 1018.4 0.0
27/12:30am 20.0 18.0 15.4 75 2.8 ESE 20 26 11 14 1020.6 1018.5 0.0
27/12:00am 20.0 18.5 15.4 75 2.8 ESE 17 24 9 13 1020.9 1018.8 0.0
 
Date/Time
EST
Temp
°C
App
Temp
°C
Dew
Point
°C
Rel
Hum
%
Delta-T
°C
Wind Press
QNH
hPa
Press
MSL
hPa
Rain since
9am
mm
Dir  Spd
km/h
Gust
km/h
Spd
kts
Gust
kts
26/11:30pm 20.1 18.2 15.3 74 2.9 E 19 26 10 14 1021.0 1018.9 0.0
26/11:00pm 20.0 18.1 15.2 74 2.9 ESE 19 24 10 13 1021.1 1019.0 0.0
26/10:30pm 20.2 17.7 15.2 73 3.0 ESE 22 32 12 17 1021.1 1019.0 0.0
26/10:00pm 20.5 16.8 15.1 71 3.2 ESE 28 37 15 20 1021.0 1018.9 0.0
26/09:30pm 20.9 16.9 15.2 70 3.4 E 30 43 16 23 1021.1 1019.0 0.0
26/09:00pm 21.3 16.9 15.2 68 3.7 E 32 41 17 22 1021.1 1019.0 0.0
26/08:30pm 21.7 17.8 15.5 68 3.8 E 30 43 16 23 1020.8 1018.7 0.0
26/08:00pm 22.2 19.0 15.3 65 4.2 E 26 33 14 18 1020.8 1018.7 0.0

Latest Capital City Observations: Canberra | Sydney | Melbourne | Brisbane | Adelaide | Perth | Hobart | Darwin

Other formats

Comma delimited format used in spreadsheet applications
http://www.bom.gov.au/fwo/IDQ60901/IDQ60901.99435.axf

JavaScript Object Notation format (JSON) in row-major order
http://www.bom.gov.au/fwo/IDQ60901/IDQ60901.99435.json

Data quality

Most of these data are generated automatically and are frequently updated. Quality checks on data are not normally performed. It is possible for incorrect values to appear. Refer to information at About Latest Weather Observations and please check the disclaimer before using these data.